SCIB weather

Butachauques Airport
Isla Butachauques, Los Lagos Region, Chile

Public forecast

Using degrees Celsius for public forecast. Weather courtesy of forecast.io.

METAR (pilot weather report)

Closest report is Mocopulli Airport, 25.5 nm (47.3 km) W. Retrieved 2019/02/17 22:00 UTC (41 minutes ago):

SCPQ 172200Z AUTO 08007KT 040V120 //// R35///// BKN036 BKN046 19/12 Q1012

TAF (pilot weather forecast)

Forecast is more than 6 hours old.

Closest forecast is Mocopulli Airport, 25.5 nm (47.3 km) W. Retrieved 2019/02/17 12:00 UTC (11 hours ago):

TAF SCPQ 171023Z 1712/1724 VRB03KT 9999 BKN008 TN12/1712Z TX22/1720Z BECMG 1714/1716 15006KT SCT020 BECMG 1722/1724 33005KT